Time;durP1;ratioP1;P1;durP2;ratioP2;P2;SDS_P1;SDS_P2;PMS_P1;PMS_P2;Temp;Humidity;BMP_temperature;BMP_pressure;BME280_temperature;BME280_humidity;BME280_pressure;Samples;Min_cycle;Max_cycle;Signal;HPM_P1;HPM_P2
2021/12/22 00:01:22;;;;;;;9.67;4.93;;;;;;;-1.66;100.00;99546.91;4973540;28;20030;-59
2021/12/22 00:03:48;;;;;;;9.17;4.97;;;;;;;-1.61;100.00;99546.28;4971697;28;20461;-58
2021/12/22 00:06:19;;;;;;;9.07;5.10;;;;;;;-1.56;100.00;99549.00;4973706;28;20108;-58
2021/12/22 00:08:45;;;;;;;11.53;5.80;;;;;;;-1.60;100.00;99545.50;4974534;28;20077;-59
2021/12/22 00:11:10;;;;;;;12.23;5.20;;;;;;;-1.64;100.00;99548.69;4971817;28;20627;-58
2021/12/22 00:13:36;;;;;;;12.87;5.33;;;;;;;-1.69;100.00;99551.78;4969803;28;20069;-59
2021/12/22 00:16:02;;;;;;;7.40;4.97;;;;;;;-1.65;100.00;99551.97;4968578;28;20055;-59
2021/12/22 00:18:27;;;;;;;9.23;4.93;;;;;;;-1.65;100.00;99558.66;4974920;28;20434;-56
2021/12/22 00:20:53;;;;;;;9.83;4.83;;;;;;;-1.67;100.00;99556.09;4978079;28;20033;-59
2021/12/22 00:23:18;;;;;;;8.97;5.03;;;;;;;-1.68;100.00;99553.50;4970963;28;20038;-59
2021/12/22 00:25:44;;;;;;;6.70;4.30;;;;;;;-1.55;100.00;99556.63;4968553;28;20138;-60
2021/12/22 00:28:09;;;;;;;10.17;5.57;;;;;;;-1.65;100.00;99558.66;4962476;28;20038;-58
2021/12/22 00:30:36;;;;;;;9.07;5.67;;;;;;;-1.69;100.00;99560.16;4972075;28;20041;-55
2021/12/22 00:33:05;;;;;;;7.47;4.80;;;;;;;-1.77;100.00;99564.00;4969200;28;20068;-59
2021/12/22 00:35:38;;;;;;;9.27;5.20;;;;;;;-1.84;100.00;99564.53;4965200;28;20034;-59
2021/12/22 00:38:08;;;;;;;10.50;5.13;;;;;;;-1.93;100.00;99566.63;4976851;28;20061;-58
2021/12/22 00:40:34;;;;;;;11.13;5.60;;;;;;;-2.02;100.00;99563.69;4973156;28;20728;-59
2021/12/22 00:43:00;;;;;;;7.07;4.40;;;;;;;-2.12;100.00;99566.59;4967854;28;20106;-59
2021/12/22 00:45:28;;;;;;;10.77;5.63;;;;;;;-2.18;100.00;99568.81;4967806;28;20034;-57
2021/12/22 00:47:54;;;;;;;7.83;4.97;;;;;;;-2.31;100.00;99570.75;4973550;28;20034;-59
2021/12/22 00:50:19;;;;;;;8.27;5.17;;;;;;;-2.39;100.00;99577.09;4972755;28;20763;-59
2021/12/22 00:52:45;;;;;;;11.30;5.40;;;;;;;-2.47;100.00;99587.56;4969754;28;20030;-58
2021/12/22 00:55:13;;;;;;;9.40;4.70;;;;;;;-2.54;100.00;99586.38;4968778;28;20077;-59
2021/12/22 00:57:39;;;;;;;9.77;5.53;;;;;;;-2.57;100.00;99592.91;4977594;28;20041;-59
2021/12/22 01:00:07;;;;;;;8.10;5.50;;;;;;;-2.62;100.00;99592.69;4973486;28;20351;-58
2021/12/22 01:02:33;;;;;;;11.77;7.20;;;;;;;-2.70;100.00;99593.09;4972389;28;20041;-60
2021/12/22 01:04:58;;;;;;;11.03;5.70;;;;;;;-2.80;100.00;99592.66;4973674;28;20054;-59
2021/12/22 01:07:24;;;;;;;11.97;6.17;;;;;;;-2.89;100.00;99594.75;4975064;28;20627;-59
2021/12/22 01:09:51;;;;;;;9.53;5.33;;;;;;;-2.95;100.00;99596.94;4969779;28;20468;-58
2021/12/22 01:12:17;;;;;;;8.63;5.37;;;;;;;-2.96;100.00;99596.84;4970290;28;20057;-60
2021/12/22 01:14:43;;;;;;;8.70;4.93;;;;;;;-3.00;100.00;99597.47;4970572;28;20130;-58
2021/12/22 01:17:13;;;;;;;9.53;5.50;;;;;;;-2.99;100.00;99596.69;4971029;28;20030;-56
2021/12/22 01:19:56;;;;;;;7.53;4.63;;;;;;;-3.03;100.00;99600.72;4971793;28;20166;-57
2021/12/22 01:22:46;;;;;;;9.20;4.73;;;;;;;-3.11;100.00;99591.94;4971565;28;20740;-58
2021/12/22 01:25:14;;;;;;;11.50;6.17;;;;;;;-3.13;100.00;99595.16;4972043;28;20419;-58
2021/12/22 01:27:42;;;;;;;11.57;5.77;;;;;;;-3.19;100.00;99604.88;4971274;28;20504;-59
2021/12/22 01:30:10;;;;;;;8.50;4.80;;;;;;;-3.22;100.00;99600.56;4969414;28;20042;-58
2021/12/22 01:32:36;;;;;;;10.93;5.63;;;;;;;-3.30;100.00;99601.81;4975235;28;20318;-58
2021/12/22 01:35:03;;;;;;;12.57;6.87;;;;;;;-3.28;100.00;99607.78;4975694;28;20042;-58
2021/12/22 01:37:29;;;;;;;10.07;4.97;;;;;;;-3.31;100.00;99612.66;4971062;28;20105;-59
2021/12/22 01:39:55;;;;;;;9.63;5.47;;;;;;;-3.28;100.00;99603.63;4968286;28;20065;-58
2021/12/22 01:42:20;;;;;;;10.83;5.73;;;;;;;-3.27;100.00;99605.34;4971437;28;20041;-59
2021/12/22 01:50:15;;;;;;;13.87;7.37;;;;;;;-3.52;100.00;99606.53;4972215;28;20491;-57
2021/12/22 01:52:41;;;;;;;12.03;6.57;;;;;;;-3.59;100.00;99612.84;4973768;28;20031;-55
2021/12/22 01:55:15;;;;;;;13.20;7.67;;;;;;;-3.64;100.00;99608.38;4976396;28;20040;-59
2021/12/22 01:57:48;;;;;;;16.30;10.50;;;;;;;-3.66;100.00;99609.97;4973307;28;20133;-59
2021/12/22 02:00:16;;;;;;;16.30;12.60;;;;;;;-3.72;100.00;99608.84;4970761;28;20045;-59
2021/12/22 02:02:42;;;;;;;15.77;11.23;;;;;;;-3.81;100.00;99610.00;4978232;28;20030;-56
2021/12/22 02:05:08;;;;;;;18.03;14.03;;;;;;;-3.86;100.00;99607.25;4977560;28;20051;-57
2021/12/22 02:07:34;;;;;;;19.07;16.33;;;;;;;-3.89;100.00;99614.59;4976749;28;20030;-58
2021/12/22 02:12:28;;;;;;;17.97;15.70;;;;;;;-3.98;100.00;99609.09;4975944;28;20038;-58
2021/12/22 02:14:53;;;;;;;16.07;11.70;;;;;;;-3.96;100.00;99612.56;4976668;28;20030;-58
2021/12/22 02:17:18;;;;;;;15.03;8.03;;;;;;;-3.87;100.00;99612.19;4971290;28;20140;-56
2021/12/22 02:19:46;;;;;;;16.93;9.87;;;;;;;-3.93;100.00;99615.22;4973142;28;20038;-56
2021/12/22 02:22:15;;;;;;;14.67;8.60;;;;;;;-3.96;100.00;99617.56;4976649;28;20047;-58
2021/12/22 02:24:54;;;;;;;14.70;8.17;;;;;;;-3.96;100.00;99619.22;4977639;28;20603;-55
2021/12/22 02:27:29;;;;;;;18.93;10.27;;;;;;;-3.96;100.00;99620.09;4971082;28;20042;-58
2021/12/22 02:30:01;;;;;;;20.73;13.27;;;;;;;-4.01;100.00;99613.97;4976427;28;20574;-59
2021/12/22 02:35:08;;;;;;;17.23;10.97;;;;;;;-4.09;100.00;99615.19;4975016;28;20597;-56
2021/12/22 02:37:42;;;;;;;13.77;8.13;;;;;;;-4.05;100.00;99609.56;4971519;28;20030;-59
2021/12/22 02:40:14;;;;;;;16.15;8.25;;;;;;;-3.74;100.00;99604.56;4976788;28;20065;-59
2021/12/22 02:42:41;;;;;;;12.90;6.77;;;;;;;-3.68;100.00;99609.88;4977301;28;20097;-58
2021/12/22 02:45:16;;;;;;;15.93;9.00;;;;;;;-3.72;100.00;99616.38;4971436;28;20105;-59
2021/12/22 02:47:42;;;;;;;12.23;6.47;;;;;;;-3.50;100.00;99617.47;4977046;28;20031;-56
2021/12/22 02:50:10;;;;;;;13.70;6.73;;;;;;;-3.43;100.00;99614.50;4973608;28;20646;-59
2021/12/22 02:52:49;;;;;;;13.20;6.67;;;;;;;-3.39;100.00;99612.22;4981955;28;20058;-59
2021/12/22 02:55:14;;;;;;;18.07;7.10;;;;;;;-3.44;100.00;99620.31;4963228;28;20116;-57
2021/12/22 02:57:46;;;;;;;13.03;5.77;;;;;;;-3.58;100.00;99618.72;4971478;28;20030;-58
2021/12/22 03:05:28;;;;;;;16.17;8.10;;;;;;;-3.54;100.00;99623.13;4969594;28;20027;-58
2021/12/22 03:07:54;;;;;;;12.70;5.80;;;;;;;-3.59;100.00;99622.00;4955985;28;20112;-58
2021/12/22 03:10:20;;;;;;;11.77;6.80;;;;;;;-3.63;100.00;99615.13;4974101;28;20383;-59
2021/12/22 03:12:51;;;;;;;11.27;6.23;;;;;;;-3.66;100.00;99620.84;4974303;28;20210;-59
2021/12/22 03:15:16;;;;;;;16.23;7.13;;;;;;;-3.60;100.00;99620.28;4971432;28;20409;-58
2021/12/22 03:17:42;;;;;;;15.40;8.07;;;;;;;-3.46;100.00;99620.22;4973597;28;20030;-61
2021/12/22 03:20:10;;;;;;;14.07;7.33;;;;;;;-3.58;100.00;99616.22;4975482;28;20047;-60
2021/12/22 03:22:37;;;;;;;10.63;5.47;;;;;;;-3.48;100.00;99616.78;4970900;28;20322;-59
2021/12/22 03:25:12;;;;;;;19.63;8.13;;;;;;;-3.49;100.00;99624.22;4974893;28;20022;-60
2021/12/22 03:27:38;;;;;;;15.03;7.07;;;;;;;-3.45;100.00;99616.94;4972950;28;20153;-59
2021/12/22 03:30:04;;;;;;;10.20;5.77;;;;;;;-3.53;100.00;99612.31;4973467;28;20031;-60
2021/12/22 03:32:29;;;;;;;14.67;6.53;;;;;;;-3.48;100.00;99619.28;4971395;28;20152;-58
2021/12/22 03:34:55;;;;;;;18.53;6.67;;;;;;;-3.49;100.00;99624.22;4946135;28;20769;-58
2021/12/22 03:37:20;;;;;;;12.23;5.87;;;;;;;-3.46;100.00;99624.38;4972814;28;20501;-59
2021/12/22 03:39:46;;;;;;;15.30;5.80;;;;;;;-3.47;100.00;99623.50;4977652;28;20027;-59
2021/12/22 03:42:12;;;;;;;19.07;7.83;;;;;;;-3.46;100.00;99626.88;4971729;28;20045;-59
2021/12/22 03:44:37;;;;;;;18.27;8.03;;;;;;;-3.61;100.00;99618.59;4969694;28;20027;-59
2021/12/22 03:47:04;;;;;;;11.60;5.50;;;;;;;-3.64;100.00;99630.94;4972751;28;20077;-59
2021/12/22 03:49:30;;;;;;;12.77;6.03;;;;;;;-3.60;100.00;99635.31;4973469;28;20042;-60
2021/12/22 03:51:56;;;;;;;15.67;8.43;;;;;;;-3.63;100.00;99632.66;4969438;28;20057;-56
2021/12/22 03:54:22;;;;;;;12.47;6.20;;;;;;;-3.55;100.00;99641.44;4971424;28;20158;-56
2021/12/22 03:56:49;;;;;;;14.93;7.17;;;;;;;-3.48;100.00;99643.50;4961768;28;20129;-57
2021/12/22 03:59:15;;;;;;;15.87;7.43;;;;;;;-3.43;100.00;99647.09;4979340;28;20065;-58
2021/12/22 04:01:40;;;;;;;16.93;7.43;;;;;;;-3.38;100.00;99649.06;4975559;28;20118;-60
2021/12/22 04:04:15;;;;;;;12.33;6.30;;;;;;;-3.34;100.00;99638.41;4970269;28;20110;-58
2021/12/22 04:06:43;;;;;;;16.30;8.20;;;;;;;-3.30;100.00;99634.41;4974167;28;20026;-57
2021/12/22 04:09:09;;;;;;;14.67;10.93;;;;;;;-3.31;100.00;99635.22;4955673;28;20486;-58
2021/12/22 04:11:34;;;;;;;14.70;7.67;;;;;;;-3.22;100.00;99647.34;4970447;28;20090;-59
2021/12/22 04:14:00;;;;;;;17.00;8.23;;;;;;;-3.24;100.00;99647.28;4972421;28;20039;-57
2021/12/22 04:16:26;;;;;;;11.43;5.90;;;;;;;-3.25;100.00;99643.03;4975862;28;20744;-56
2021/12/22 04:18:51;;;;;;;9.37;6.67;;;;;;;-3.30;100.00;99644.44;4972461;28;20173;-58
2021/12/22 04:21:17;;;;;;;14.97;7.17;;;;;;;-3.40;100.00;99645.63;4973401;28;20039;-58
2021/12/22 04:23:43;;;;;;;12.70;5.23;;;;;;;-3.39;100.00;99651.47;4971303;28;20030;-57
2021/12/22 04:26:10;;;;;;;14.87;6.90;;;;;;;-3.50;100.00;99647.56;4975037;28;20164;-58
2021/12/22 04:28:36;;;;;;;9.20;6.00;;;;;;;-3.45;100.00;99649.53;4970816;28;20033;-58
2021/12/22 04:31:01;;;;;;;11.33;7.23;;;;;;;-3.52;100.00;99649.13;4968047;28;20509;-59
2021/12/22 04:33:26;;;;;;;14.93;8.10;;;;;;;-3.54;100.00;99653.19;4976116;28;20031;-60
2021/12/22 04:35:53;;;;;;;13.27;6.07;;;;;;;-3.34;100.00;99657.59;4974397;28;20061;-60
2021/12/22 04:38:19;;;;;;;14.63;7.10;;;;;;;-3.35;100.00;99656.72;4968225;28;20590;-59
2021/12/22 04:40:45;;;;;;;15.37;7.00;;;;;;;-3.31;100.00;99662.78;4971938;28;20142;-60
2021/12/22 04:43:10;;;;;;;15.27;6.63;;;;;;;-3.36;100.00;99649.16;4974001;28;20030;-60
2021/12/22 04:45:36;;;;;;;12.53;6.60;;;;;;;-3.35;100.00;99650.84;4961257;28;20034;-60
2021/12/22 04:48:02;;;;;;;13.17;7.43;;;;;;;-3.33;100.00;99646.78;4969607;28;20246;-58
2021/12/22 04:50:28;;;;;;;20.07;8.20;;;;;;;-3.38;100.00;99654.06;4958023;28;20042;-60
2021/12/22 04:55:23;;;;;;;11.50;5.20;;;;;;;-3.49;100.00;99652.66;4972327;28;20035;-59
2021/12/22 04:57:48;;;;;;;12.60;6.13;;;;;;;-3.50;100.00;99657.59;4968485;28;20560;-61
2021/12/22 05:00:16;;;;;;;12.60;6.17;;;;;;;-3.28;100.00;99655.41;4966829;28;20045;-60
2021/12/22 05:02:41;;;;;;;15.50;6.40;;;;;;;-3.16;100.00;99661.06;4976046;28;20030;-60
2021/12/22 05:05:07;;;;;;;11.00;5.33;;;;;;;-3.03;100.00;99658.41;4976155;28;20062;-60
2021/12/22 05:07:32;;;;;;;14.40;6.53;;;;;;;-2.93;100.00;99662.25;4967569;28;20042;-59
2021/12/22 05:09:58;;;;;;;11.80;5.60;;;;;;;-2.89;100.00;99656.59;4974051;28;20129;-60
2021/12/22 05:12:24;;;;;;;15.03;5.80;;;;;;;-2.81;100.00;99657.81;4971728;28;20036;-60
2021/12/22 05:14:50;;;;;;;11.53;5.60;;;;;;;-2.78;100.00;99668.00;4971382;28;20497;-59
2021/12/22 05:20:06;;;;;;;14.60;7.03;;;;;;;-2.96;100.00;99669.59;4967106;28;20122;-59
2021/12/22 05:22:32;;;;;;;12.03;6.07;;;;;;;-3.06;100.00;99670.78;4958110;28;20485;-60
2021/12/22 05:24:59;;;;;;;12.77;6.17;;;;;;;-3.25;100.00;99668.09;4971315;28;20058;-59
2021/12/22 05:27:27;;;;;;;13.13;6.73;;;;;;;-3.42;100.00;99669.72;4970757;28;20611;-60
2021/12/22 05:29:53;;;;;;;13.07;5.70;;;;;;;-3.53;100.00;99672.47;4968964;28;20579;-59
2021/12/22 05:32:20;;;;;;;15.30;7.47;;;;;;;-3.71;100.00;99663.19;4972924;28;20215;-59
2021/12/22 05:34:45;;;;;;;19.67;11.37;;;;;;;-3.72;100.00;99675.63;4971399;28;20035;-60
2021/12/22 05:37:11;;;;;;;16.37;7.37;;;;;;;-3.78;100.00;99681.16;4972644;28;20084;-62
2021/12/22 05:39:36;;;;;;;14.17;6.50;;;;;;;-3.85;100.00;99676.59;4969597;28;20039;-60
2021/12/22 05:42:02;;;;;;;17.80;6.87;;;;;;;-3.93;100.00;99676.97;4974277;28;20411;-59
2021/12/22 05:44:28;;;;;;;13.63;6.03;;;;;;;-3.96;100.00;99682.69;4973668;28;20564;-60
2021/12/22 05:46:53;;;;;;;9.90;5.20;;;;;;;-3.98;100.00;99686.72;4972541;28;20043;-60
2021/12/22 05:49:19;;;;;;;14.33;6.03;;;;;;;-3.95;100.00;99693.56;4972456;28;20074;-60
2021/12/22 05:51:45;;;;;;;13.43;5.63;;;;;;;-4.00;100.00;99697.47;4971274;28;20039;-61
2021/12/22 05:54:10;;;;;;;16.90;7.70;;;;;;;-4.07;100.00;99690.41;4968906;28;20813;-59
2021/12/22 05:56:35;;;;;;;30.50;11.60;;;;;;;-4.02;100.00;99696.50;4969389;28;20465;-60
2021/12/22 05:59:01;;;;;;;15.33;7.87;;;;;;;-3.92;100.00;99697.09;4972028;28;20042;-60
2021/12/22 06:01:27;;;;;;;13.63;7.43;;;;;;;-3.97;100.00;99690.97;4978539;28;20295;-59
2021/12/22 06:03:52;;;;;;;17.53;7.87;;;;;;;-3.96;100.00;99710.22;4974652;28;20050;-58
2021/12/22 06:06:19;;;;;;;12.80;6.57;;;;;;;-3.96;100.00;99701.84;4970515;28;20474;-55
2021/12/22 06:08:45;;;;;;;14.23;6.83;;;;;;;-3.79;100.00;99714.53;4973254;28;20880;-56
2021/12/22 06:11:10;;;;;;;13.73;5.73;;;;;;;-3.76;100.00;99711.31;4974119;28;20026;-56
2021/12/22 06:13:35;;;;;;;10.87;6.00;;;;;;;-3.71;100.00;99709.94;4976767;28;20046;-58
2021/12/22 06:16:01;;;;;;;17.23;5.90;;;;;;;-3.61;100.00;99717.16;4988275;28;20061;-58
2021/12/22 06:18:28;;;;;;;13.20;5.40;;;;;;;-3.64;100.00;99723.63;4992443;28;20026;-55
2021/12/22 06:20:53;;;;;;;16.87;6.40;;;;;;;-3.52;100.00;99720.13;4993886;28;20035;-59
2021/12/22 06:23:18;;;;;;;11.07;5.10;;;;;;;-3.51;100.00;99728.53;4973940;28;20037;-57
2021/12/22 06:25:44;;;;;;;15.47;5.87;;;;;;;-3.57;100.00;99720.69;4988768;28;20157;-56
2021/12/22 06:28:09;;;;;;;11.93;4.93;;;;;;;-3.66;100.00;99731.09;4995510;28;20088;-59
2021/12/22 06:30:35;;;;;;;15.30;6.43;;;;;;;-3.77;100.00;99734.63;4993082;28;20032;-58
2021/12/22 06:33:00;;;;;;;11.50;5.13;;;;;;;-3.85;100.00;99740.84;4996508;28;20109;-58
2021/12/22 06:35:26;;;;;;;12.43;6.23;;;;;;;-3.76;100.00;99739.72;4997243;28;20112;-59
2021/12/22 06:37:52;;;;;;;20.00;9.50;;;;;;;-3.80;100.00;99741.97;5000010;28;20114;-57
2021/12/22 06:40:18;;;;;;;21.47;9.10;;;;;;;-3.81;100.00;99748.63;4992260;28;20154;-58
2021/12/22 06:42:43;;;;;;;19.10;8.53;;;;;;;-3.80;100.00;99747.00;4989694;28;20499;-58
2021/12/22 06:45:10;;;;;;;15.27;7.00;;;;;;;-3.75;100.00;99745.59;4987597;28;20034;-57
2021/12/22 06:47:36;;;;;;;15.63;5.60;;;;;;;-3.62;100.00;99748.00;4997499;28;20428;-57
2021/12/22 06:50:04;;;;;;;10.60;5.53;;;;;;;-3.59;100.00;99753.19;4996139;28;20030;-55
2021/12/22 06:52:29;;;;;;;12.20;5.83;;;;;;;-3.57;100.00;99756.66;4989340;28;20065;-57
2021/12/22 06:54:54;;;;;;;11.67;5.67;;;;;;;-3.46;100.00;99754.69;4993375;28;20109;-59
2021/12/22 06:57:21;;;;;;;9.83;5.07;;;;;;;-3.60;100.00;99748.94;4993599;28;20035;-59
2021/12/22 06:59:47;;;;;;;11.80;5.57;;;;;;;-3.58;100.00;99764.94;4991908;28;20037;-57
2021/12/22 07:02:13;;;;;;;13.03;5.57;;;;;;;-3.60;100.00;99768.13;4993566;28;20340;-57
2021/12/22 07:04:39;;;;;;;16.20;5.97;;;;;;;-3.69;100.00;99765.97;4995817;28;20046;-56
2021/12/22 07:07:05;;;;;;;13.37;5.53;;;;;;;-3.71;100.00;99770.91;5000363;28;20057;-58
2021/12/22 07:09:30;;;;;;;47.07;15.40;;;;;;;-3.76;100.00;99774.81;4998652;28;20030;-59
2021/12/22 07:11:56;;;;;;;91.57;26.23;;;;;;;-3.70;100.00;99776.78;4991808;28;20030;-57
2021/12/22 07:14:21;;;;;;;48.03;19.03;;;;;;;-3.71;100.00;99787.59;4992192;28;20050;-59
2021/12/22 07:16:47;;;;;;;28.40;10.73;;;;;;;-3.75;100.00;99780.69;4994211;28;20634;-59
2021/12/22 07:19:13;;;;;;;21.87;9.20;;;;;;;-3.62;100.00;99789.75;4991428;28;20035;-58
2021/12/22 07:21:39;;;;;;;27.47;11.83;;;;;;;-3.52;100.00;99794.50;4991295;28;20018;-54
2021/12/22 07:24:05;;;;;;;26.23;11.10;;;;;;;-3.56;100.00;99798.44;4994688;28;20080;-56
2021/12/22 07:26:31;;;;;;;28.27;10.27;;;;;;;-3.60;100.00;99793.16;4997063;28;20153;-57
2021/12/22 07:28:56;;;;;;;23.47;8.60;;;;;;;-3.52;100.00;99794.50;4993204;28;20483;-57
2021/12/22 07:31:22;;;;;;;16.77;7.37;;;;;;;-3.46;100.00;99790.66;4994925;28;20464;-59
2021/12/22 07:33:59;;;;;;;13.10;5.93;;;;;;;-3.35;100.00;99793.72;4996636;28;20045;-58
2021/12/22 07:36:24;;;;;;;17.43;7.63;;;;;;;-3.31;100.00;99790.63;4993825;28;20392;-58
2021/12/22 07:39:03;;;;;;;22.03;7.20;;;;;;;-3.15;100.00;99795.69;4990277;28;20050;-58
2021/12/22 07:41:30;;;;;;;16.40;6.47;;;;;;;-3.19;100.00;99793.81;4990670;28;20041;-57
2021/12/22 07:43:55;;;;;;;12.53;6.50;;;;;;;-3.17;100.00;99788.84;4994971;28;20060;-59
2021/12/22 07:46:21;;;;;;;12.43;6.13;;;;;;;-2.99;100.00;99793.19;4993042;28;20125;-56
2021/12/22 07:48:47;;;;;;;14.90;7.30;;;;;;;-2.91;100.00;99791.97;4994894;28;20061;-59
2021/12/22 07:51:12;;;;;;;14.90;7.80;;;;;;;-2.83;100.00;99795.72;4991616;28;20037;-58
2021/12/22 07:53:38;;;;;;;14.07;12.03;;;;;;;-2.69;100.00;99793.06;4991322;28;20368;-59
2021/12/22 07:56:04;;;;;;;16.67;10.50;;;;;;;-2.59;100.00;99791.13;4992440;28;20050;-58
2021/12/22 07:58:29;;;;;;;22.50;16.47;;;;;;;-2.55;100.00;99794.66;4988543;28;20079;-58
2021/12/22 08:00:56;;;;;;;29.73;26.90;;;;;;;-2.38;100.00;99799.72;4989794;28;20026;-58
2021/12/22 08:03:23;;;;;;;35.90;32.20;;;;;;;-2.20;100.00;99787.22;4988777;28;20093;-59
2021/12/22 08:05:49;;;;;;;52.83;41.30;;;;;;;-2.04;100.00;99796.41;4992611;28;20045;-59
2021/12/22 08:08:16;;;;;;;50.90;41.10;;;;;;;-1.94;100.00;99796.06;4994816;28;20038;-59
2021/12/22 08:10:42;;;;;;;61.53;47.03;;;;;;;-1.86;100.00;99799.78;4995268;28;20037;-59
2021/12/22 08:13:07;;;;;;;69.43;49.20;;;;;;;-1.85;100.00;99804.03;4990094;28;20602;-58
2021/12/22 08:15:33;;;;;;;71.13;49.10;;;;;;;-1.85;100.00;99804.91;4992032;28;20028;-57
2021/12/22 08:17:59;;;;;;;68.77;48.83;;;;;;;-1.91;100.00;99804.59;4996194;28;20088;-59
2021/12/22 08:20:25;;;;;;;94.20;55.37;;;;;;;-1.74;100.00;99797.03;4992356;28;20030;-58
2021/12/22 08:22:50;;;;;;;71.17;50.20;;;;;;;-1.63;100.00;99805.94;4992945;28;20037;-58
2021/12/22 08:25:16;;;;;;;78.40;52.53;;;;;;;-1.56;100.00;99813.84;4989644;28;20044;-59
2021/12/22 08:27:42;;;;;;;83.83;68.20;;;;;;;-1.33;100.00;99816.59;4994045;28;20934;-57
2021/12/22 08:30:08;;;;;;;97.43;58.07;;;;;;;-1.33;100.00;99821.59;4990517;28;20412;-59
2021/12/22 08:32:35;;;;;;;90.90;58.67;;;;;;;-1.34;100.00;99818.22;4989114;28;20069;-57
2021/12/22 08:35:04;;;;;;;98.07;59.03;;;;;;;-1.25;100.00;99817.78;4989864;28;20464;-59
2021/12/22 08:40:17;;;;;;;61.63;47.05;;;;;;;-1.16;100.00;99819.09;4992793;28;20782;-57
2021/12/22 08:42:46;;;;;;;99.23;56.77;;;;;;;-1.18;100.00;99819.78;4990621;28;20042;-58
2021/12/22 08:45:12;;;;;;;82.53;53.77;;;;;;;-0.99;100.00;99820.72;4986200;28;20767;-59
2021/12/22 08:47:38;;;;;;;105.13;58.37;;;;;;;-0.88;100.00;99817.81;4996690;28;20164;-59
2021/12/22 08:50:08;;;;;;;104.50;60.50;;;;;;;-0.68;100.00;99822.94;4988457;28;20046;-59
2021/12/22 08:52:34;;;;;;;88.60;57.20;;;;;;;-0.67;100.00;99813.75;4987981;28;20042;-57
2021/12/22 08:55:00;;;;;;;95.57;58.80;;;;;;;-0.48;100.00;99834.78;4981683;28;20393;-59
2021/12/22 08:57:26;;;;;;;89.17;58.27;;;;;;;-0.37;100.00;99835.22;4993490;28;20294;-58
2021/12/22 08:59:51;;;;;;;74.83;54.50;;;;;;;-0.19;100.00;99830.13;4987861;28;20030;-56
2021/12/22 09:02:17;;;;;;;57.00;47.60;;;;;;;-0.07;100.00;99820.56;4990836;28;20034;-61
2021/12/22 09:04:42;;;;;;;56.70;49.20;;;;;;;-0.08;97.38;99833.94;4991173;28;20404;-55
2021/12/22 09:07:08;;;;;;;74.37;53.57;;;;;;;-0.19;97.36;99833.50;4988389;28;20153;-58
2021/12/22 09:09:33;;;;;;;62.50;50.40;;;;;;;-0.09;97.83;99835.63;4991875;28;20054;-57
2021/12/22 09:11:59;;;;;;;41.67;37.60;;;;;;;0.06;96.59;99839.56;4991462;28;20148;-59
2021/12/22 09:14:25;;;;;;;26.27;23.93;;;;;;;0.21;95.12;99846.09;4989451;28;20520;-56
2021/12/22 09:16:51;;;;;;;48.30;43.20;;;;;;;0.22;93.80;99847.84;4990222;28;20480;-58
2021/12/22 09:19:17;;;;;;;30.03;27.13;;;;;;;0.19;95.05;99849.38;4990464;28;20115;-59
2021/12/22 09:21:44;;;;;;;71.97;55.63;;;;;;;0.20;95.79;99848.59;4993961;28;20034;-58
2021/12/22 09:24:10;;;;;;;56.23;48.50;;;;;;;0.17;96.00;99845.94;4986989;28;20548;-60
2021/12/22 09:26:35;;;;;;;46.70;41.97;;;;;;;0.20;96.51;99849.44;4989384;28;20042;-58
2021/12/22 09:29:02;;;;;;;67.57;53.03;;;;;;;0.30;95.09;99848.16;4992484;28;20617;-59
2021/12/22 09:31:27;;;;;;;88.17;63.37;;;;;;;0.44;95.26;99849.59;4991804;28;20026;-58
2021/12/22 09:33:52;;;;;;;58.07;48.87;;;;;;;0.77;93.47;99843.34;4987187;28;20046;-58
2021/12/22 09:36:18;;;;;;;76.10;57.53;;;;;;;0.81;90.63;99841.78;4992494;28;20034;-59
2021/12/22 09:38:44;;;;;;;56.97;49.40;;;;;;;0.79;90.78;99843.41;4991057;28;20038;-57
2021/12/22 09:41:11;;;;;;;40.33;36.47;;;;;;;0.78;91.58;99834.13;4996671;28;20089;-57
2021/12/22 09:43:38;;;;;;;57.33;49.67;;;;;;;0.82;90.30;99830.91;4987861;28;20390;-57
2021/12/22 09:46:08;;;;;;;87.77;61.40;;;;;;;0.69;92.17;99839.66;4991091;28;20027;-55
2021/12/22 09:53:37;;;;;;;103.17;62.57;;;;;;;0.63;93.56;99834.41;4990956;28;20758;-59
2021/12/22 09:56:04;;;;;;;105.77;66.23;;;;;;;0.70;93.69;99832.97;4988124;28;20320;-58
2021/12/22 09:58:31;;;;;;;104.37;67.50;;;;;;;0.85;93.01;99831.00;4991098;28;20041;-57
2021/12/22 10:00:57;;;;;;;114.20;69.57;;;;;;;0.90;91.69;99832.94;4989196;28;20049;-57
2021/12/22 10:03:24;;;;;;;120.50;73.70;;;;;;;0.88;91.53;99823.59;4994194;28;20065;-59
2021/12/22 10:05:50;;;;;;;149.37;75.20;;;;;;;1.10;90.48;99807.59;4998457;28;20069;-58
2021/12/22 10:08:20;;;;;;;105.80;67.73;;;;;;;1.51;87.72;99811.63;4999130;28;20053;-56
2021/12/22 10:10:48;;;;;;;79.63;59.13;;;;;;;1.80;81.52;99806.78;4993392;28;20014;-57
2021/12/22 10:13:25;;;;;;;108.00;70.87;;;;;;;2.00;76.59;99812.50;4996417;28;20073;-57
2021/12/22 10:15:51;;;;;;;79.30;59.20;;;;;;;2.19;72.98;99806.41;4996632;28;20105;-58
2021/12/22 10:18:19;;;;;;;96.70;65.47;;;;;;;2.40;71.71;99806.22;4997362;28;20034;-59
2021/12/22 10:20:46;;;;;;;93.70;68.13;;;;;;;2.49;70.93;99802.34;4997682;28;20153;-57
2021/12/22 10:23:26;;;;;;;98.53;70.37;;;;;;;2.53;69.99;99796.56;4992709;28;20521;-55
2021/12/22 10:25:57;;;;;;;72.80;64.93;;;;;;;2.24;70.72;99800.69;4995991;28;20188;-58
2021/12/22 10:28:24;;;;;;;61.53;54.90;;;;;;;2.32;70.73;99793.34;4999866;28;20109;-59
2021/12/22 10:30:58;;;;;;;70.27;63.20;;;;;;;2.38;71.06;99795.22;4990279;28;20053;-58
2021/12/22 10:33:29;;;;;;;85.10;66.97;;;;;;;2.29;72.76;99796.63;4996556;28;20180;-58
2021/12/22 10:35:57;;;;;;;86.10;69.17;;;;;;;2.38;71.22;99798.56;5000785;28;20038;-59
2021/12/22 10:38:25;;;;;;;92.53;68.87;;;;;;;2.43;70.66;99781.00;4995044;28;20053;-57
2021/12/22 10:40:53;;;;;;;91.67;74.83;;;;;;;2.44;70.34;99792.88;4996629;28;20061;-59
2021/12/22 10:43:20;;;;;;;77.83;64.67;;;;;;;2.40;68.41;99786.84;4993649;28;20061;-60
2021/12/22 10:45:50;;;;;;;67.63;57.67;;;;;;;2.37;68.41;99764.00;4995516;28;20102;-60
2021/12/22 10:51:05;;;;;;;129.20;81.80;;;;;;;2.72;68.70;99770.97;4992019;28;20092;-58
2021/12/22 10:53:31;;;;;;;157.17;98.80;;;;;;;3.20;67.35;99774.09;5000016;28;20485;-59
2021/12/22 10:55:57;;;;;;;119.83;81.23;;;;;;;3.63;66.43;99767.69;4994762;28;20045;-58
2021/12/22 10:58:34;;;;;;;89.07;73.83;;;;;;;3.78;63.88;99767.25;4973541;28;20041;-55
2021/12/22 11:01:12;;;;;;;99.13;79.03;;;;;;;4.02;62.64;99763.66;4993387;28;20279;-59
2021/12/22 11:03:46;;;;;;;101.93;84.27;;;;;;;3.87;61.79;99764.91;4994475;28;20053;-57
2021/12/22 11:06:28;;;;;;;86.90;76.65;;;;;;;3.48;62.80;99763.03;4994417;28;20061;-60
2021/12/22 11:09:03;;;;;;;117.13;89.87;;;;;;;2.99;65.30;99759.97;4990378;28;20503;-60
2021/12/22 11:11:43;;;;;;;108.53;80.47;;;;;;;3.08;65.49;99755.16;4991771;28;20666;-59
2021/12/22 11:14:19;;;;;;;139.47;87.63;;;;;;;2.97;67.23;99756.53;4993179;28;20030;-58
2021/12/22 11:16:59;;;;;;;128.87;95.93;;;;;;;3.01;69.00;99751.56;4993326;28;20436;-58
2021/12/22 11:19:32;;;;;;;185.73;102.50;;;;;;;2.98;71.40;99748.09;4991871;28;20092;-57
2021/12/22 11:22:01;;;;;;;178.67;94.83;;;;;;;2.86;74.34;99747.75;4993450;28;20042;-58
2021/12/22 11:24:28;;;;;;;198.73;111.13;;;;;;;2.68;76.15;99746.38;4975326;28;20283;-59
2021/12/22 11:26:54;;;;;;;206.53;100.90;;;;;;;2.78;76.67;99749.19;4990733;28;20088;-58
2021/12/22 11:29:26;;;;;;;202.67;101.40;;;;;;;2.85;77.38;99753.63;4990909;28;20093;-59
2021/12/22 11:31:52;;;;;;;203.40;99.40;;;;;;;2.68;76.23;99753.97;4991356;28;20104;-59
2021/12/22 11:34:19;;;;;;;212.10;101.50;;;;;;;2.74;75.96;99754.19;4993872;28;20157;-55
2021/12/22 11:36:46;;;;;;;244.97;108.83;;;;;;;2.85;76.59;99751.09;4988487;28;20030;-58
2021/12/22 11:39:12;;;;;;;248.63;107.30;;;;;;;2.80;75.77;99745.88;4991779;28;20472;-56
2021/12/22 11:41:54;;;;;;;255.33;105.03;;;;;;;2.65;76.43;99740.38;4992385;28;20027;-58
2021/12/22 11:44:28;;;;;;;240.87;104.87;;;;;;;2.67;77.92;99743.81;4991637;28;20540;-57
2021/12/22 11:46:58;;;;;;;245.53;105.63;;;;;;;2.71;78.15;99743.97;4987658;28;20401;-54
2021/12/22 11:49:24;;;;;;;218.73;102.37;;;;;;;2.57;79.57;99731.69;4990771;28;20043;-56